Time;durP1;ratioP1;P1;durP2;ratioP2;P2;SDS_P1;SDS_P2;PMS_P1;PMS_P2;Temp;Humidity;BMP_temperature;BMP_pressure;BME280_temperature;BME280_humidity;BME280_pressure;Samples;Min_cycle;Max_cycle;Signal;HPM_P1;HPM_P2
2021/07/15 00:01:54;;;;;;;12.35;5.50;;;;;;;19.00;84.53;99993.06;128773;1095;22356;-81
2021/07/15 00:04:25;;;;;;;8.93;5.33;;;;;;;19.01;84.74;99982.11;128632;1094;22682;-81
2021/07/15 00:06:55;;;;;;;11.68;4.98;;;;;;;19.04;85.07;99973.63;128321;1093;24988;-82
2021/07/15 00:09:25;;;;;;;13.33;5.70;;;;;;;19.08;84.63;99968.61;128335;1094;22346;-80
2021/07/15 00:11:54;;;;;;;14.30;5.93;;;;;;;19.12;84.62;99953.70;128690;1095;22803;-82
2021/07/15 00:14:27;;;;;;;15.60;6.05;;;;;;;19.17;84.60;99937.77;128671;1095;22347;-80
2021/07/15 00:16:58;;;;;;;14.08;5.33;;;;;;;19.20;84.93;99918.56;128445;1095;22337;-81
2021/07/15 00:19:29;;;;;;;14.45;5.15;;;;;;;19.25;84.52;99920.52;128380;1095;22603;-79
2021/07/15 00:21:59;;;;;;;9.53;4.43;;;;;;;19.29;84.51;99921.67;128704;1095;22638;-78
2021/07/15 00:24:29;;;;;;;14.70;4.75;;;;;;;19.30;84.29;99911.80;128594;1095;23306;-80
2021/07/15 00:26:59;;;;;;;13.03;5.40;;;;;;;19.34;84.38;99915.63;128209;1095;22354;-80
2021/07/15 00:29:30;;;;;;;16.73;5.95;;;;;;;19.37;84.31;99923.20;128241;1095;22368;-79
2021/07/15 00:32:03;;;;;;;13.65;5.88;;;;;;;19.38;83.84;99919.45;127986;1098;22440;-80
2021/07/15 00:34:33;;;;;;;9.90;5.38;;;;;;;19.38;84.26;99916.78;128025;1098;22377;-80
2021/07/15 00:37:03;;;;;;;13.15;5.18;;;;;;;19.40;84.42;99925.41;128165;1098;22391;-80
2021/07/15 00:39:33;;;;;;;10.35;5.10;;;;;;;19.40;84.37;99917.37;128226;1098;22395;-80
2021/07/15 00:42:03;;;;;;;11.50;5.10;;;;;;;19.41;83.80;99918.98;128206;1098;24538;-80
2021/07/15 00:44:33;;;;;;;12.43;5.35;;;;;;;19.43;84.07;99927.61;128158;1095;22405;-80
2021/07/15 00:47:02;;;;;;;12.63;5.13;;;;;;;19.44;83.92;99924.69;128223;1098;24252;-80
2021/07/15 00:49:32;;;;;;;17.93;4.95;;;;;;;19.43;83.67;99917.70;128243;1095;22353;-80
2021/07/15 00:52:02;;;;;;;11.15;4.85;;;;;;;19.43;83.97;99922.25;128672;1093;22376;-79
2021/07/15 00:54:32;;;;;;;13.25;5.30;;;;;;;19.45;83.88;99910.23;128608;1093;22363;-80
2021/07/15 00:57:01;;;;;;;9.55;4.53;;;;;;;19.42;83.53;99923.28;128574;1095;22347;-80
2021/07/15 00:59:31;;;;;;;13.30;4.53;;;;;;;19.39;83.34;99937.15;128564;1095;22347;-79
2021/07/15 01:02:01;;;;;;;16.03;5.40;;;;;;;19.36;83.58;99951.01;128605;1095;22346;-80
2021/07/15 01:04:32;;;;;;;15.13;5.53;;;;;;;19.31;83.34;99961.63;128616;1095;22360;-79
2021/07/15 01:07:02;;;;;;;14.70;5.33;;;;;;;19.29;83.77;99953.81;128305;1095;22801;-81
2021/07/15 01:09:33;;;;;;;17.38;6.28;;;;;;;19.29;83.85;99953.81;128275;1095;22808;-80
2021/07/15 01:12:24;;;;;;;17.43;6.13;;;;;;;19.32;83.93;99952.53;128249;1095;22448;-82
2021/07/15 01:15:11;;;;;;;12.43;6.00;;;;;;;19.27;83.92;99953.25;128572;1094;22346;-80
2021/07/15 01:18:16;;;;;;;11.05;5.40;;;;;;;19.25;83.82;99961.50;128284;1095;22196;-79
2021/07/15 01:21:17;;;;;;;17.03;6.50;;;;;;;19.23;83.64;99968.16;128219;1098;22379;-80
2021/07/15 01:24:24;;;;;;;;;;;;;;;19.15;83.46;99974.66;128247;1096;24505;-80
2021/07/15 01:27:21;;;;;;;14.87;6.47;;;;;;;19.11;84.11;99994.11;128220;1098;23129;-80
2021/07/15 01:30:18;;;;;;;15.55;6.63;;;;;;;19.12;84.36;99998.41;128197;1098;22345;-80
2021/07/15 01:33:15;;;;;;;17.00;6.25;;;;;;;19.11;84.34;99997.60;128148;1098;22388;-80
2021/07/15 01:35:57;;;;;;;18.50;6.50;;;;;;;19.09;84.66;100007.72;128216;1098;25223;-79
2021/07/15 01:38:42;;;;;;;20.48;6.78;;;;;;;19.10;84.35;100012.05;128201;1098;25125;-80
2021/07/15 01:41:23;;;;;;;13.73;7.35;;;;;;;19.13;84.91;100014.26;128441;1098;22377;-80
2021/07/15 01:44:08;;;;;;;19.60;7.60;;;;;;;19.13;84.78;100010.77;128021;1098;22471;-81
2021/07/15 01:46:40;;;;;;;13.65;7.40;;;;;;;19.13;84.52;100014.26;127957;1098;23162;-80
2021/07/15 01:49:10;;;;;;;15.43;8.00;;;;;;;19.16;84.51;100024.51;128173;1098;22379;-81
2021/07/15 01:51:41;;;;;;;19.90;7.80;;;;;;;19.20;84.88;100032.89;128156;1098;22373;-80
2021/07/15 01:54:12;;;;;;;18.73;8.08;;;;;;;19.23;85.00;100022.53;128171;1098;22391;-81
2021/07/15 01:56:43;;;;;;;13.45;7.55;;;;;;;19.28;85.05;100032.53;128034;1098;23152;-76
2021/07/15 01:59:16;;;;;;;;;;;;;;;19.26;84.12;100016.71;128282;1095;22364;-77
2021/07/15 02:01:47;;;;;;;15.03;8.48;;;;;;;19.26;84.60;100019.39;128635;1094;21263;-76
2021/07/15 02:04:18;;;;;;;25.23;8.45;;;;;;;19.30;84.75;100018.92;128617;1095;22354;-76
2021/07/15 02:06:51;;;;;;;20.95;8.53;;;;;;;19.32;84.88;100017.62;128693;1095;22449;-76
2021/07/15 02:09:24;;;;;;;24.88;9.05;;;;;;;19.35;84.82;100013.67;128358;1095;22347;-76
2021/07/15 02:11:55;;;;;;;23.33;9.75;;;;;;;19.38;84.69;100010.52;128708;1095;22353;-77
2021/07/15 02:14:27;;;;;;;27.38;9.03;;;;;;;19.39;84.69;100012.14;128634;1095;22348;-76
2021/07/15 02:17:00;;;;;;;26.63;9.58;;;;;;;19.39;84.74;100002.27;128583;1094;22366;-75
2021/07/15 02:19:33;;;;;;;20.05;9.23;;;;;;;19.40;84.69;99997.73;128368;1095;24499;-75
2021/07/15 02:22:03;;;;;;;14.30;10.28;;;;;;;19.41;84.94;99992.12;128593;1093;22358;-76
2021/07/15 02:24:35;;;;;;;24.20;10.50;;;;;;;19.42;84.81;99993.73;128212;1095;22350;-76
2021/07/15 02:27:06;;;;;;;23.88;9.45;;;;;;;19.43;84.41;99987.35;128558;1093;23537;-76
2021/07/15 02:29:39;;;;;;;20.85;10.10;;;;;;;19.44;84.40;99994.33;128567;1095;22344;-77
2021/07/15 02:32:13;;;;;;;20.88;9.98;;;;;;;19.47;84.52;99993.05;128544;1095;22355;-76
2021/07/15 02:35:01;;;;;;;20.98;10.30;;;;;;;19.50;84.38;99988.04;128620;1094;22361;-76
2021/07/15 02:37:36;;;;;;;16.20;9.45;;;;;;;19.51;84.22;99984.30;128573;1095;22369;-76
2021/07/15 02:40:12;;;;;;;19.43;10.03;;;;;;;19.49;84.40;99969.50;128634;1095;22351;-76
2021/07/15 02:42:44;;;;;;;20.83;9.68;;;;;;;19.47;84.56;99983.15;128562;1095;22344;-76
2021/07/15 02:45:18;;;;;;;19.05;9.43;;;;;;;19.48;84.53;99965.20;128616;1095;24489;-77
2021/07/15 02:47:49;;;;;;;21.60;9.95;;;;;;;19.51;84.28;99962.06;128639;1095;22364;-76
2021/07/15 02:50:23;;;;;;;19.98;9.65;;;;;;;19.52;84.09;99969.03;128757;1095;22366;-77
2021/07/15 02:52:55;;;;;;;20.25;9.78;;;;;;;19.52;84.45;99963.68;128569;1095;22375;-77
2021/07/15 02:55:27;;;;;;;19.50;9.67;;;;;;;19.54;84.10;99953.55;128561;1092;22361;-76
2021/07/15 02:58:27;;;;;;;19.53;10.35;;;;;;;19.55;84.09;99949.81;128302;1095;22369;-76
2021/07/15 03:01:00;;;;;;;17.50;10.20;;;;;;;19.55;83.99;99962.40;128523;1095;22349;-76
2021/07/15 03:04:03;;;;;;;21.60;10.23;;;;;;;19.56;84.34;99961.34;128591;1095;25015;-76
2021/07/15 03:06:40;;;;;;;18.18;10.25;;;;;;;19.57;84.29;99968.34;128561;1095;24229;-78
2021/07/15 03:09:14;;;;;;;21.35;10.80;;;;;;;19.59;84.30;99974.27;128565;1095;22366;-77
2021/07/15 03:12:12;;;;;;;16.90;9.88;;;;;;;19.59;84.24;99966.23;128586;1093;22340;-76
2021/07/15 03:14:45;;;;;;;19.85;10.28;;;;;;;19.58;84.14;99967.29;128654;1095;22350;-77
2021/07/15 03:17:20;;;;;;;22.18;10.58;;;;;;;19.56;84.29;99964.02;128642;1095;24314;-76
2021/07/15 03:19:51;;;;;;;27.50;11.35;;;;;;;19.56;84.07;99962.18;128640;1095;22346;-75
2021/07/15 03:22:25;;;;;;;19.08;12.33;;;;;;;19.57;84.24;99971.03;128574;1095;22350;-76
2021/07/15 03:25:00;;;;;;;23.15;12.48;;;;;;;19.56;84.66;99974.73;128591;1095;22365;-75
2021/07/15 03:27:34;;;;;;;18.88;11.00;;;;;;;19.56;83.82;99974.73;128235;1098;22561;-76
2021/07/15 03:30:07;;;;;;;20.70;11.78;;;;;;;19.56;84.13;99978.25;128160;1098;22381;-77
2021/07/15 03:32:39;;;;;;;17.80;10.10;;;;;;;19.57;84.22;99989.78;127927;1098;22817;-76
2021/07/15 03:35:10;;;;;;;;;;;;;;;19.52;84.02;99977.88;127991;1098;22810;-77
2021/07/15 03:37:44;;;;;;;22.35;11.08;;;;;;;19.47;84.43;99979.66;127933;1097;22222;-77
2021/07/15 03:40:22;;;;;;;20.25;11.98;;;;;;;19.49;84.27;99977.54;128042;1098;24552;-76
2021/07/15 03:42:53;;;;;;;24.08;10.75;;;;;;;19.51;84.55;99967.42;127934;1098;22445;-77
2021/07/15 03:45:23;;;;;;;;;;;;;;;19.47;83.76;99985.02;128075;1095;24499;-77
2021/07/15 03:47:56;;;;;;;23.25;10.70;;;;;;;19.46;84.52;99983.36;128269;1095;21260;-75
2021/07/15 03:50:30;;;;;;;20.25;10.45;;;;;;;19.47;84.66;99979.66;128525;1093;24177;-80
2021/07/15 03:53:07;;;;;;;17.15;11.30;;;;;;;19.52;84.63;99985.11;128678;1092;22360;-76
2021/07/15 03:55:38;;;;;;;23.33;12.18;;;;;;;19.55;84.19;99990.00;128615;1095;22340;-75
2021/07/15 03:58:11;;;;;;;26.50;12.55;;;;;;;19.55;84.69;99990.00;128712;1094;22340;-75
2021/07/15 04:00:45;;;;;;;24.18;12.63;;;;;;;19.55;84.25;99987.32;128644;1092;25005;-76
2021/07/15 04:03:20;;;;;;;23.93;11.53;;;;;;;19.57;84.47;99984.42;128660;1092;22341;-76
2021/07/15 04:05:52;;;;;;;19.48;11.80;;;;;;;19.58;84.30;99989.53;128588;1092;22792;-76
2021/07/15 04:08:24;;;;;;;25.78;12.03;;;;;;;19.59;84.20;99988.47;128606;1095;23830;-76
2021/07/15 04:11:02;;;;;;;22.58;13.15;;;;;;;19.62;84.16;99976.48;128667;1092;22337;-75
2021/07/15 04:13:35;;;;;;;24.20;13.85;;;;;;;19.64;84.10;99979.78;128676;1092;22343;-77
2021/07/15 04:16:45;;;;;;;18.58;11.65;;;;;;;19.66;84.02;99981.17;128638;1095;22352;-77
2021/07/15 04:19:16;;;;;;;21.65;12.28;;;;;;;19.70;84.27;99987.69;128163;1096;24511;-76
2021/07/15 04:21:45;;;;;;;26.80;12.30;;;;;;;19.75;84.19;99979.73;128203;1095;22363;-76
2021/07/15 04:24:16;;;;;;;22.35;11.55;;;;;;;19.83;84.12;99975.08;128181;1095;23306;-77
2021/07/15 04:26:48;;;;;;;20.20;12.30;;;;;;;19.91;83.79;99986.22;128179;1095;22374;-78
2021/07/15 04:29:20;;;;;;;17.85;11.35;;;;;;;19.97;83.96;99992.51;128243;1095;24518;-77
2021/07/15 04:32:26;;;;;;;19.55;10.38;;;;;;;19.96;83.57;99989.02;128267;1095;22362;-78
2021/07/15 04:34:57;;;;;;;21.48;11.60;;;;;;;19.96;83.66;99991.70;127954;1098;22371;-79
2021/07/15 04:37:27;;;;;;;16.55;10.93;;;;;;;19.98;83.35;99996.81;128033;1100;22356;-79
2021/07/15 04:39:57;;;;;;;19.33;10.60;;;;;;;19.99;83.52;99993.06;127961;1100;22352;-77
2021/07/15 04:42:28;;;;;;;18.48;10.58;;;;;;;20.03;83.21;99993.44;127968;1100;22525;-77
2021/07/15 04:44:58;;;;;;;19.80;10.43;;;;;;;20.07;83.15;99995.39;127947;1099;24502;-77
2021/07/15 04:47:30;;;;;;;17.48;11.43;;;;;;;20.13;83.45;99991.75;128016;1100;22361;-78
2021/07/15 04:50:00;;;;;;;11.60;9.10;;;;;;;20.17;82.91;99997.45;127932;1100;24499;-79
2021/07/15 04:52:30;;;;;;;13.93;9.35;;;;;;;20.20;83.19;99992.42;127911;1099;22391;-78
2021/07/15 04:55:00;;;;;;;17.88;9.15;;;;;;;20.24;82.55;99986.58;127955;1099;22358;-78
2021/07/15 04:57:31;;;;;;;20.23;11.77;;;;;;;20.28;83.00;99977.80;128143;1098;22373;-78
2021/07/15 05:00:02;;;;;;;20.65;10.45;;;;;;;20.35;82.95;99980.33;128132;1097;23326;-78
2021/07/15 05:02:32;;;;;;;17.78;9.88;;;;;;;20.44;82.98;99970.84;128171;1098;22379;-76
2021/07/15 05:05:05;;;;;;;19.05;9.45;;;;;;;20.55;83.02;99978.03;128164;1098;24253;-76
2021/07/15 05:07:36;;;;;;;13.65;8.85;;;;;;;20.64;82.30;99981.95;128206;1095;22368;-76
2021/07/15 05:10:09;;;;;;;14.50;9.70;;;;;;;20.71;82.14;99975.62;128133;1098;22395;-77
2021/07/15 05:12:39;;;;;;;20.28;11.05;;;;;;;20.83;82.24;99977.17;128558;1093;25014;-77
2021/07/15 05:15:12;;;;;;;14.70;9.20;;;;;;;20.97;81.73;99974.16;128547;1095;22353;-77
2021/07/15 05:17:41;;;;;;;16.43;9.85;;;;;;;21.08;81.42;99974.05;128636;1095;22379;-76
2021/07/15 05:20:12;;;;;;;12.93;9.63;;;;;;;21.20;81.02;99981.21;128655;1093;22802;-76
2021/07/15 05:22:41;;;;;;;11.68;7.30;;;;;;;21.33;81.27;99988.92;128622;1093;22368;-76
2021/07/15 05:25:11;;;;;;;17.05;9.43;;;;;;;21.46;80.52;99977.85;128587;1095;24230;-78
2021/07/15 05:27:41;;;;;;;12.83;8.13;;;;;;;21.57;80.54;99984.97;128279;1095;22402;-76
2021/07/15 05:30:12;;;;;;;13.20;7.13;;;;;;;21.66;79.65;99979.15;128573;1095;22368;-76
2021/07/15 05:32:43;;;;;;;11.30;7.80;;;;;;;21.76;79.23;99969.36;128238;1095;22352;-77
2021/07/15 05:35:13;;;;;;;17.28;9.45;;;;;;;21.91;79.02;99984.03;128214;1095;22364;-78
2021/07/15 05:37:43;;;;;;;15.68;10.20;;;;;;;21.97;78.34;99973.09;128187;1093;22880;-77
2021/07/15 05:40:13;;;;;;;13.43;7.23;;;;;;;22.09;78.30;99970.23;128202;1095;22879;-78
2021/07/15 05:42:43;;;;;;;13.10;7.50;;;;;;;22.25;78.03;99963.17;128209;1095;22415;-77
2021/07/15 05:45:12;;;;;;;12.23;6.85;;;;;;;22.41;77.87;99956.88;128210;1095;25468;-78
2021/07/15 05:47:42;;;;;;;8.85;6.30;;;;;;;22.58;77.04;99964.02;128217;1095;22390;-78
2021/07/15 05:50:11;;;;;;;9.30;6.23;;;;;;;22.76;76.65;99958.26;128261;1095;22378;-77
2021/07/15 05:52:52;;;;;;;10.80;6.35;;;;;;;23.01;76.32;99955.75;128533;1093;22349;-77
2021/07/15 05:55:22;;;;;;;12.10;6.58;;;;;;;23.31;75.79;99957.02;128559;1095;22350;-77
2021/07/15 05:57:51;;;;;;;9.83;5.75;;;;;;;23.56;74.52;99961.73;128644;1095;22350;-77
2021/07/15 06:00:21;;;;;;;8.58;5.58;;;;;;;23.81;73.63;99969.13;128676;1094;22350;-77
2021/07/15 06:02:51;;;;;;;9.53;5.83;;;;;;;24.07;72.95;99969.21;128598;1092;22333;-76
2021/07/15 06:05:30;;;;;;;12.40;5.80;;;;;;;24.40;72.71;99966.05;128623;1093;22338;-77
2021/07/15 06:08:01;;;;;;;16.08;6.55;;;;;;;24.69;71.23;99967.41;128544;1093;22370;-76
2021/07/15 06:10:30;;;;;;;12.48;6.98;;;;;;;24.99;70.39;99969.27;128555;1095;22341;-76
2021/07/15 06:13:00;;;;;;;13.00;7.08;;;;;;;25.24;69.36;99958.45;128560;1095;22801;-76
2021/07/15 06:15:29;;;;;;;15.00;6.65;;;;;;;25.44;68.18;99962.98;128603;1095;22379;-76
2021/07/15 06:17:59;;;;;;;11.45;6.15;;;;;;;25.51;67.31;99951.88;128599;1095;22368;-77
2021/07/15 06:20:28;;;;;;;11.63;6.73;;;;;;;25.64;67.64;99956.69;128534;1095;22657;-77
2021/07/15 06:22:58;;;;;;;11.13;6.43;;;;;;;25.63;66.52;99946.97;128637;1093;24186;-77
2021/07/15 06:25:27;;;;;;;12.95;7.00;;;;;;;25.66;66.48;99949.12;128665;1095;22354;-77
2021/07/15 06:27:57;;;;;;;10.60;6.45;;;;;;;25.67;66.53;99956.14;128596;1093;22378;-77
2021/07/15 06:30:27;;;;;;;12.25;6.93;;;;;;;25.64;66.24;99955.89;128614;1093;22338;-77
2021/07/15 06:32:58;;;;;;;11.48;6.75;;;;;;;25.66;66.18;99965.34;128611;1095;24473;-76
2021/07/15 06:35:28;;;;;;;16.28;7.58;;;;;;;25.88;66.48;99972.30;128652;1093;25008;-76
2021/07/15 06:37:57;;;;;;;16.55;7.65;;;;;;;26.15;65.71;99967.27;128555;1095;22459;-76
2021/07/15 06:40:27;;;;;;;15.83;8.18;;;;;;;26.45;65.15;99977.08;128572;1095;24189;-77
2021/07/15 06:42:56;;;;;;;13.65;7.73;;;;;;;26.66;63.83;99975.06;128545;1095;22365;-78
2021/07/15 06:45:26;;;;;;;13.80;7.63;;;;;;;26.82;62.87;99977.63;128546;1095;22348;-74
2021/07/15 06:47:55;;;;;;;18.70;8.03;;;;;;;27.06;62.53;99964.95;128555;1095;22375;-74
2021/07/15 06:50:25;;;;;;;13.25;8.18;;;;;;;27.32;61.25;99970.11;128624;1093;22367;-74
2021/07/15 06:52:54;;;;;;;17.33;8.33;;;;;;;27.44;60.46;99981.38;128538;1095;22363;-74
2021/07/15 06:55:24;;;;;;;19.73;9.48;;;;;;;27.49;59.98;99975.91;128635;1095;22452;-74
2021/07/15 06:57:53;;;;;;;16.95;9.60;;;;;;;27.56;59.91;99972.84;128555;1094;22366;-73
2021/07/15 07:00:23;;;;;;;12.95;8.63;;;;;;;27.61;59.89;99973.56;128702;1092;24482;-73
2021/07/15 07:02:53;;;;;;;16.70;9.35;;;;;;;27.73;59.21;99972.36;128540;1095;22434;-74
2021/07/15 07:05:23;;;;;;;11.50;8.80;;;;;;;27.84;58.98;99973.86;128582;1094;22795;-73
2021/07/15 07:07:52;;;;;;;17.68;9.68;;;;;;;27.91;58.56;99994.11;128543;1093;22334;-73
2021/07/15 07:10:22;;;;;;;555.98;76.90;;;;;;;27.92;57.91;99992.20;128608;1092;23168;-75
2021/07/15 07:12:51;;;;;;;34.38;14.55;;;;;;;27.78;57.50;99996.73;128607;1095;23110;-75
2021/07/15 07:15:23;;;;;;;39.35;16.10;;;;;;;27.60;57.77;99999.09;128526;1093;22653;-75
2021/07/15 07:17:53;;;;;;;20.25;13.15;;;;;;;27.34;57.68;100000.48;128610;1095;22348;-75
2021/07/15 07:20:22;;;;;;;23.90;14.58;;;;;;;27.01;58.23;99999.42;128610;1094;22674;-75
2021/07/15 07:22:52;;;;;;;24.03;12.65;;;;;;;26.73;59.19;100005.35;128663;1092;22342;-75
2021/07/15 07:25:22;;;;;;;26.58;13.35;;;;;;;26.52;59.47;100014.70;128616;1092;22362;-75
2021/07/15 07:27:51;;;;;;;20.43;13.63;;;;;;;26.31;59.90;100015.91;128531;1095;22361;-75
2021/07/15 07:30:23;;;;;;;24.58;13.98;;;;;;;26.10;60.36;100023.35;128593;1095;24243;-79
2021/07/15 07:32:52;;;;;;;24.08;14.98;;;;;;;25.93;60.79;100024.52;128593;1095;22387;-75
2021/07/15 07:35:23;;;;;;;23.10;15.40;;;;;;;25.75;61.20;100015.06;128692;1095;24508;-74
2021/07/15 07:37:52;;;;;;;25.08;14.15;;;;;;;25.64;61.85;100012.69;128664;1092;23642;-74
2021/07/15 07:40:22;;;;;;;26.88;17.60;;;;;;;25.57;62.24;100021.09;128782;1093;22359;-75
2021/07/15 07:42:52;;;;;;;30.95;16.80;;;;;;;25.40;62.05;100024.12;128601;1095;22346;-75
2021/07/15 07:45:21;;;;;;;23.95;15.78;;;;;;;25.21;62.61;100034.69;128657;1092;22365;-75
2021/07/15 07:47:51;;;;;;;27.35;16.93;;;;;;;25.11;63.01;100034.66;128549;1095;22347;-75
2021/07/15 07:50:22;;;;;;;20.68;15.95;;;;;;;25.10;63.25;100023.05;128608;1095;22392;-75
2021/07/15 07:52:52;;;;;;;26.35;17.08;;;;;;;25.16;63.35;100021.19;128696;1092;24232;-74
2021/07/15 07:55:25;;;;;;;24.13;19.05;;;;;;;25.15;62.71;100033.06;128383;1092;23235;-74
2021/07/15 07:57:54;;;;;;;;;;;;;;;25.08;62.83;100032.50;128651;1092;23121;-74
2021/07/15 08:00:24;;;;;;;30.38;20.35;;;;;;;25.04;63.35;100044.94;128659;1092;23248;-74
2021/07/15 08:02:54;;;;;;;25.47;18.90;;;;;;;25.01;63.10;100040.88;128788;1092;23112;-75
2021/07/15 08:05:25;;;;;;;29.15;20.33;;;;;;;25.05;63.33;100041.95;128601;1095;22353;-74
2021/07/15 08:07:55;;;;;;;29.53;18.90;;;;;;;25.19;63.25;100044.98;129054;1095;22342;-74
2021/07/15 08:10:24;;;;;;;25.18;20.85;;;;;;;25.34;63.07;100060.35;128617;1092;22398;-73
2021/07/15 08:12:54;;;;;;;94.20;86.45;;;;;;;25.45;62.80;100050.32;128669;1095;22389;-76
2021/07/15 08:15:23;;;;;;;29.25;19.60;;;;;;;25.66;63.07;100051.91;128585;1092;22367;-76
2021/07/15 08:17:53;;;;;;;24.80;19.53;;;;;;;25.91;61.91;100047.52;128655;1092;22380;-76
2021/07/15 08:20:23;;;;;;;26.45;19.83;;;;;;;25.96;60.93;100052.92;128670;1092;22356;-77
2021/07/15 08:22:54;;;;;;;25.28;18.95;;;;;;;25.96;60.77;100072.67;128351;1092;22341;-78
2021/07/15 08:25:25;;;;;;;27.73;19.60;;;;;;;26.00;60.98;100072.92;128658;1092;22436;-86
2021/07/15 08:27:55;;;;;;;25.70;21.35;;;;;;;25.95;60.58;100079.16;128736;1098;22363;-86
2021/07/15 08:30:25;;;;;;;27.80;21.53;;;;;;;25.91;60.55;100090.81;128247;1098;22438;-75
2021/07/15 08:32:54;;;;;;;28.78;21.70;;;;;;;25.83;60.70;100094.91;128223;1097;25807;-76
2021/07/15 08:35:28;;;;;;;29.45;23.35;;;;;;;25.79;61.37;100102.73;128204;1098;23301;-76
2021/07/15 08:37:59;;;;;;;34.45;22.48;;;;;;;25.78;60.92;100114.63;128479;1098;22394;-76
2021/07/15 08:40:29;;;;;;;31.55;23.18;;;;;;;25.70;60.95;100104.38;128335;1098;22439;-74
2021/07/15 08:42:59;;;;;;;34.88;24.53;;;;;;;25.57;61.04;100097.63;128237;1096;24212;-75
2021/07/15 08:45:30;;;;;;;34.65;21.95;;;;;;;25.58;61.54;100099.24;128280;1095;22394;-77
2021/07/15 08:48:01;;;;;;;30.38;21.58;;;;;;;25.53;61.61;100101.17;128653;1092;22345;-76
2021/07/15 08:50:32;;;;;;;28.37;22.33;;;;;;;25.44;61.89;100102.80;128582;1092;22352;-76
2021/07/15 08:53:01;;;;;;;23.87;20.37;;;;;;;25.36;62.31;100109.57;128614;1095;24220;-75
2021/07/15 08:58:18;;;;;;;35.05;24.98;;;;;;;25.18;62.38;100107.40;128690;1092;22359;-76
2021/07/15 09:00:49;;;;;;;27.53;24.48;;;;;;;25.08;63.15;100117.09;128658;1094;22350;-76
2021/07/15 09:03:19;;;;;;;;;;;;;;;24.97;62.87;100126.28;128686;1095;22369;-74
2021/07/15 09:05:48;;;;;;;31.68;24.65;;;;;;;24.88;63.32;100127.88;128707;1093;21269;-76
2021/07/15 09:08:18;;;;;;;32.75;26.63;;;;;;;24.88;64.07;100138.69;128365;1095;24520;-77
2021/07/15 09:10:48;;;;;;;36.65;28.30;;;;;;;24.86;64.26;100148.97;128657;1095;22353;-75
2021/07/15 09:13:17;;;;;;;38.00;28.80;;;;;;;24.79;63.82;100151.93;128673;1094;22797;-77
2021/07/15 09:15:49;;;;;;;37.38;27.35;;;;;;;24.74;63.84;100151.91;128746;1095;22394;-73
2021/07/15 09:18:19;;;;;;;41.40;29.55;;;;;;;24.73;64.21;100158.39;129975;1095;22410;-76
2021/07/15 09:20:49;;;;;;;36.38;28.40;;;;;;;24.68;64.12;100177.27;128698;1093;22367;-76
2021/07/15 09:23:19;;;;;;;33.78;29.03;;;;;;;24.54;64.74;100182.36;128713;1095;22370;-74
2021/07/15 09:25:49;;;;;;;32.85;29.23;;;;;;;24.49;64.85;100178.81;128471;1095;22381;-75
2021/07/15 09:28:29;;;;;;;39.93;26.87;;;;;;;24.53;65.33;100163.73;128682;1095;25736;-74
2021/07/15 09:31:17;;;;;;;38.73;28.88;;;;;;;24.59;64.98;100146.45;128603;1095;22356;-77
2021/07/15 09:33:48;;;;;;;37.60;28.95;;;;;;;24.71;65.01;100148.92;128545;1095;22382;-76
2021/07/15 09:36:21;;;;;;;36.38;28.68;;;;;;;24.82;64.79;100154.07;128570;1095;22362;-76
2021/07/15 09:38:51;;;;;;;34.68;28.25;;;;;;;24.88;64.78;100161.11;128690;1094;22359;-77
2021/07/15 09:41:20;;;;;;;42.03;33.45;;;;;;;24.89;64.73;100162.75;128561;1094;22362;-77
2021/07/15 09:43:50;;;;;;;44.30;33.58;;;;;;;24.87;64.59;100178.41;128312;1094;22381;-78
2021/07/15 09:46:22;;;;;;;46.03;33.50;;;;;;;24.80;64.82;100182.45;128585;1095;22378;-77
2021/07/15 09:49:06;;;;;;;47.47;38.17;;;;;;;24.67;64.86;100191.05;128667;1095;24259;-76
2021/07/15 09:51:39;;;;;;;44.85;32.60;;;;;;;24.55;65.13;100188.56;128725;1095;22362;-77
2021/07/15 09:54:10;;;;;;;49.50;38.20;;;;;;;24.49;65.84;100171.55;128572;1095;22361;-76
2021/07/15 09:56:46;;;;;;;46.67;34.97;;;;;;;24.42;66.03;100168.27;128544;1094;22366;-77
2021/07/15 09:59:16;;;;;;;41.63;33.78;;;;;;;24.38;65.92;100164.44;128592;1095;22222;-77
2021/07/15 10:01:51;;;;;;;46.98;31.93;;;;;;;24.39;66.42;100155.25;128531;1095;22356;-77
2021/07/15 10:04:29;;;;;;;44.28;33.80;;;;;;;24.39;66.55;100164.19;128351;1095;22375;-78
2021/07/15 10:07:02;;;;;;;55.43;36.03;;;;;;;24.42;66.48;100179.06;128546;1093;22358;-77
2021/07/15 10:09:31;;;;;;;48.33;36.15;;;;;;;24.34;66.05;100188.45;128584;1093;22356;-77
2021/07/15 10:12:03;;;;;;;50.18;35.90;;;;;;;24.23;66.47;100197.59;128552;1095;22373;-78
2021/07/15 10:14:41;;;;;;;41.63;35.38;;;;;;;24.16;66.83;100208.61;128550;1095;22466;-76
2021/07/15 10:17:10;;;;;;;44.20;35.28;;;;;;;24.06;66.60;100207.72;128599;1093;22361;-77
2021/07/15 10:19:40;;;;;;;48.60;36.38;;;;;;;24.00;67.26;100197.98;128597;1095;24525;-75
2021/07/15 10:22:10;;;;;;;47.30;35.13;;;;;;;24.01;67.11;100186.12;128579;1094;22370;-76
2021/07/15 10:24:40;;;;;;;48.60;36.58;;;;;;;24.03;67.72;100192.08;128613;1095;22356;-75
2021/07/15 10:27:10;;;;;;;47.88;37.23;;;;;;;24.04;67.67;100182.90;128606;1095;22383;-75
2021/07/15 10:29:41;;;;;;;44.90;39.28;;;;;;;24.05;67.48;100179.12;128588;1095;22378;-76
2021/07/15 10:32:11;;;;;;;47.43;37.80;;;;;;;24.01;67.28;100184.23;128271;1095;22361;-75
2021/07/15 10:34:44;;;;;;;51.93;39.30;;;;;;;23.97;67.24;100199.31;128452;1095;22363;-74
2021/07/15 10:37:14;;;;;;;46.18;39.35;;;;;;;23.93;67.56;100198.22;128682;1094;22263;-75
2021/07/15 10:39:46;;;;;;;56.13;36.13;;;;;;;23.99;67.75;100194.45;128622;1095;22357;-76
2021/07/15 10:42:16;;;;;;;50.50;37.98;;;;;;;24.07;67.61;100182.38;128593;1094;22375;-76
2021/07/15 10:44:46;;;;;;;48.93;38.80;;;;;;;24.14;67.46;100186.45;128569;1092;24492;-76
2021/07/15 10:47:17;;;;;;;44.53;38.78;;;;;;;24.11;66.86;100197.77;128561;1095;22350;-76
2021/07/15 10:49:47;;;;;;;45.50;39.08;;;;;;;24.13;67.21;100205.63;128649;1094;22380;-76
2021/07/15 10:52:18;;;;;;;50.33;43.27;;;;;;;24.18;67.28;100179.45;128596;1095;22367;-75
2021/07/15 10:54:49;;;;;;;57.95;39.85;;;;;;;24.34;67.41;100191.16;128650;1095;23261;-75
2021/07/15 10:57:24;;;;;;;49.43;38.55;;;;;;;24.50;67.28;100186.67;128822;1095;22364;-74
2021/07/15 10:59:54;;;;;;;42.68;34.70;;;;;;;24.67;66.77;100182.95;128683;1095;24499;-76
2021/07/15 11:02:27;;;;;;;52.20;36.33;;;;;;;24.75;65.96;100191.33;128627;1093;22347;-76
2021/07/15 11:04:57;;;;;;;47.50;37.03;;;;;;;24.86;65.67;100190.30;128682;1093;22354;-74
2021/07/15 11:07:31;;;;;;;45.13;37.50;;;;;;;25.00;66.20;100179.80;128572;1095;24240;-74
2021/07/15 11:10:21;;;;;;;41.53;34.78;;;;;;;25.20;65.65;100181.75;128756;1092;22340;-76
2021/07/15 11:13:00;;;;;;;44.48;36.48;;;;;;;25.37;64.99;100180.67;128640;1092;24237;-75
2021/07/15 11:15:55;;;;;;;43.15;36.80;;;;;;;25.56;64.74;100187.17;128623;1092;22340;-74
2021/07/15 11:19:06;;;;;;;45.90;37.73;;;;;;;25.75;64.39;100190.92;128666;1089;22363;-75
2021/07/15 11:21:36;;;;;;;41.30;36.90;;;;;;;25.90;63.46;100182.02;128207;1097;22369;-75
2021/07/15 11:24:06;;;;;;;49.98;36.13;;;;;;;26.00;63.83;100187.41;128433;1096;22339;-74
2021/07/15 11:26:41;;;;;;;43.43;35.28;;;;;;;26.11;62.63;100185.48;128207;1097;23138;-74
2021/07/15 11:29:12;;;;;;;49.25;38.03;;;;;;;26.25;62.25;100183.80;128394;1095;22365;-74
2021/07/15 11:31:51;;;;;;;38.28;33.78;;;;;;;26.33;61.48;100178.93;128205;1095;22362;-74
2021/07/15 11:34:35;;;;;;;38.83;35.00;;;;;;;26.36;61.18;100189.19;128248;1095;24499;-73
2021/07/15 11:37:31;;;;;;;39.68;35.38;;;;;;;26.33;60.70;100190.57;128251;1095;22357;-74
2021/07/15 11:40:05;;;;;;;42.18;35.28;;;;;;;26.21;61.01;100193.57;128208;1096;22369;-74
2021/07/15 11:42:45;;;;;;;44.63;34.67;;;;;;;26.16;60.76;100185.48;128211;1098;22472;-74